Rockledge, Alabama
Current Conditions -  °F | °C
As of 10:15 PM on Sunday 23 Nov 2014 (Local Time) from KGAD Reporting Station
Overcast Overcast  
Wind Chill: 63°   Ceiling: 2700
Heat Index: 63°   Visibility: 10mi
Dew Point: 55°   Wind: 12mph
Humidity: 77%   Direction: 190°S
Pressure: 29.67"   Gusts: 18mph
Location:  34.0771°N, 86.0689°W
Report Text: KGAD 240415Z 19010G16KT 10SM BKN027 OVC033 17/13 A2967 RMK AO1
Loading
Personal Weather Stations






























Interactive Weather Map New forecast layout! Learn more

10-Day Weather Forecast

Advertisements
Track Severe Weather on mobile